createdAt,value
2018-07-24T00:01:09.640Z,101032.88
2018-07-24T00:03:37.969Z,101031.47
2018-07-24T00:06:07.341Z,101034.63
2018-07-24T00:08:38.610Z,101036.09
2018-07-24T00:11:07.458Z,101033.09
2018-07-24T00:13:35.788Z,101034.03
2018-07-24T00:16:04.145Z,101031.64
2018-07-24T00:18:32.584Z,101023.26
2018-07-24T00:21:00.920Z,101025.88
2018-07-24T00:23:29.260Z,101023.13
2018-07-24T00:25:57.648Z,101018.74
2018-07-24T00:28:26.864Z,101023.39
2018-07-24T00:30:55.197Z,101021.09
2018-07-24T00:33:23.532Z,101018.74
2018-07-24T00:35:51.882Z,101014.41
2018-07-24T00:38:20.240Z,101019.99
2018-07-24T00:40:49.138Z,101017.28
2018-07-24T00:43:18.746Z,101017.89
2018-07-24T00:45:47.128Z,101017.59
2018-07-24T00:48:16.140Z,101020.48
2018-07-24T00:50:44.525Z,101024.74
2018-07-24T00:53:15.431Z,101021.22
2018-07-24T00:55:44.494Z,101013.53
2018-07-24T00:58:13.501Z,101015.50
2018-07-24T01:00:41.844Z,101009.69
2018-07-24T01:03:11.220Z,101011.93
2018-07-24T01:05:39.568Z,101014.66
2018-07-24T01:08:07.900Z,101019.06
2018-07-24T01:10:36.236Z,101022.94
2018-07-24T01:13:04.653Z,101027.23
2018-07-24T01:15:33.218Z,101016.91
2018-07-24T01:18:01.688Z,101020.98
2018-07-24T01:20:30.857Z,101023.50
2018-07-24T01:22:59.577Z,101018.41
2018-07-24T01:25:27.927Z,101014.97
2018-07-24T01:27:56.505Z,101014.28
2018-07-24T01:30:24.858Z,101018.04
2018-07-24T01:32:53.217Z,101014.84
2018-07-24T01:35:21.591Z,101011.00
2018-07-24T01:37:51.059Z,101012.73
2018-07-24T01:40:20.419Z,101011.61
2018-07-24T01:42:50.084Z,101005.80
2018-07-24T01:45:19.667Z,101011.76
2018-07-24T01:47:48.682Z,101012.80
2018-07-24T01:50:17.679Z,101006.83
2018-07-24T01:52:48.546Z,101007.14
2018-07-24T01:55:17.505Z,100998.64
2018-07-24T01:57:46.580Z,101002.23
2018-07-24T02:00:16.308Z,101000.98
2018-07-24T02:02:45.913Z,100998.64
2018-07-24T02:05:15.566Z,100994.47
2018-07-24T02:07:44.570Z,100999.12
2018-07-24T02:10:13.005Z,101006.84
2018-07-24T02:12:41.369Z,101004.06
2018-07-24T02:15:09.739Z,101003.37
2018-07-24T02:17:38.436Z,101012.56
2018-07-24T02:20:06.881Z,101004.90
2018-07-24T02:22:35.309Z,101008.66
2018-07-24T02:25:03.668Z,101008.66
2018-07-24T02:27:32.108Z,101007.28
2018-07-24T02:30:00.489Z,101008.27
2018-07-24T02:32:28.853Z,101007.70
2018-07-24T02:34:57.205Z,101009.87
2018-07-24T02:37:25.574Z,101015.56
2018-07-24T02:39:53.917Z,101017.84
2018-07-24T02:42:22.273Z,101004.80
2018-07-24T02:44:50.647Z,101014.89
2018-07-24T02:47:20.117Z,101019.42
2018-07-24T02:49:49.654Z,101015.53
2018-07-24T02:52:18.569Z,101015.31
2018-07-24T02:54:47.573Z,101017.90
2018-07-24T02:57:17.152Z,101015.89
2018-07-24T02:59:46.621Z,101017.84
2018-07-24T03:02:15.621Z,101021.80
2018-07-24T03:04:44.689Z,101019.16
2018-07-24T03:07:13.686Z,101016.52
2018-07-24T03:09:42.065Z,101013.88
2018-07-24T03:12:10.549Z,101020.80
2018-07-24T03:14:38.903Z,101017.27
2018-07-24T03:17:07.262Z,101014.77
2018-07-24T03:19:35.613Z,101017.05
2018-07-24T03:22:04.002Z,101017.56
2018-07-24T03:24:33.237Z,101018.73
2018-07-24T03:27:01.596Z,101019.16
2018-07-24T03:29:29.954Z,101015.16
2018-07-24T03:31:58.325Z,101023.30
2018-07-24T03:34:26.681Z,101026.35
2018-07-24T03:36:55.088Z,101031.00
2018-07-24T03:39:23.441Z,101034.16
2018-07-24T03:41:51.794Z,101034.00
2018-07-24T03:44:21.433Z,101040.55
2018-07-24T03:46:51.138Z,101037.75
2018-07-24T03:49:20.160Z,101037.75
2018-07-24T03:51:49.167Z,101037.75
2018-07-24T03:54:18.787Z,101031.36
2018-07-24T03:56:47.133Z,101040.13
2018-07-24T03:59:16.520Z,101036.58
2018-07-24T04:01:45.795Z,101033.52
2018-07-24T04:04:14.706Z,101038.74
2018-07-24T04:06:43.114Z,101032.27
2018-07-24T04:09:12.102Z,101039.97
2018-07-24T04:11:40.781Z,101036.64
2018-07-24T04:14:09.177Z,101043.03
2018-07-24T04:16:37.562Z,101046.03
2018-07-24T04:19:05.929Z,101045.09
2018-07-24T04:21:34.347Z,101047.83
2018-07-24T04:24:02.724Z,101050.59
2018-07-24T04:26:31.138Z,101049.41
2018-07-24T04:28:59.497Z,101048.84
2018-07-24T04:31:27.885Z,101046.83
2018-07-24T04:33:56.242Z,101051.05
2018-07-24T04:36:24.698Z,101052.78
2018-07-24T04:38:53.070Z,101048.59
2018-07-24T04:41:21.451Z,101047.37
2018-07-24T04:43:50.331Z,101048.75
2018-07-24T04:46:20.709Z,101045.00
2018-07-24T04:48:50.082Z,101047.20
2018-07-24T04:51:19.750Z,101054.34
2018-07-24T04:53:48.114Z,101055.11
2018-07-24T04:56:16.474Z,101063.48
2018-07-24T04:58:45.509Z,101059.61
2018-07-24T05:01:14.863Z,101044.70
2018-07-24T05:03:43.635Z,101053.67
2018-07-24T05:06:11.998Z,101055.27
2018-07-24T05:08:40.382Z,101059.70
2018-07-24T05:11:09.782Z,101062.30
2018-07-24T05:13:38.157Z,101056.53
2018-07-24T05:16:06.573Z,101060.59
2018-07-24T05:18:35.226Z,101068.95
2018-07-24T05:21:03.655Z,101067.92
2018-07-24T05:23:32.008Z,101068.78
2018-07-24T05:26:00.465Z,101067.31
2018-07-24T05:28:28.826Z,101060.05
2018-07-24T05:30:58.123Z,101060.52
2018-07-24T05:33:26.514Z,101060.59
2018-07-24T05:35:54.907Z,101064.34
2018-07-24T05:38:23.305Z,101063.45
2018-07-24T05:40:52.157Z,101072.44
2018-07-24T05:43:20.804Z,101073.81
2018-07-24T05:45:50.817Z,101075.88
2018-07-24T05:48:19.927Z,101077.91
2018-07-24T05:50:50.499Z,101080.27
2018-07-24T05:53:19.885Z,101083.07
2018-07-24T05:55:48.276Z,101082.92
2018-07-24T05:58:16.673Z,101085.58
2018-07-24T06:00:45.909Z,101074.91
2018-07-24T06:03:14.767Z,101072.23
2018-07-24T06:05:43.705Z,101081.47
2018-07-24T06:08:12.054Z,101081.94
2018-07-24T06:10:40.444Z,101086.75
2018-07-24T06:13:08.869Z,101084.05
2018-07-24T06:15:37.235Z,101084.64
2018-07-24T06:18:06.202Z,101083.94
2018-07-24T06:20:34.581Z,101083.19
2018-07-24T06:23:02.973Z,101080.69
2018-07-24T06:25:31.391Z,101080.34
2018-07-24T06:27:59.775Z,101083.16
2018-07-24T06:30:28.469Z,101087.73
2018-07-24T06:32:57.017Z,101082.02
2018-07-24T06:35:25.373Z,101080.69
2018-07-24T06:37:53.730Z,101083.77
2018-07-24T06:40:22.089Z,101087.23
2018-07-24T06:42:50.446Z,101087.87
2018-07-24T06:45:20.239Z,101089.80
2018-07-24T06:47:49.413Z,101090.41
2018-07-24T06:50:18.864Z,101091.80
2018-07-24T06:52:47.249Z,101088.88
2018-07-24T06:55:16.617Z,101090.95
2018-07-24T06:57:45.914Z,101092.84
2018-07-24T07:00:14.814Z,101087.65
2018-07-24T07:02:43.202Z,101083.55
2018-07-24T07:05:11.649Z,101080.68
2018-07-24T07:07:40.551Z,101080.97
2018-07-24T07:10:09.175Z,101080.66
2018-07-24T07:12:37.584Z,101082.17
2018-07-24T07:15:06.765Z,101080.64
2018-07-24T07:17:35.129Z,101078.41
2018-07-24T07:20:03.532Z,101078.23
2018-07-24T07:22:31.923Z,101084.08
2018-07-24T07:25:00.338Z,101084.16
2018-07-24T07:27:28.703Z,101089.27
2018-07-24T07:29:57.086Z,101089.39
2018-07-24T07:32:25.544Z,101083.45
2018-07-24T07:34:54.905Z,101083.25
2018-07-24T07:37:23.263Z,101080.05
2018-07-24T07:39:51.606Z,101079.20
2018-07-24T07:42:21.106Z,101078.67
2018-07-24T07:44:50.422Z,101079.44
2018-07-24T07:47:19.238Z,101082.31
2018-07-24T07:49:49.416Z,101080.47
2018-07-24T07:53:42.361Z,101075.44
2018-07-24T07:56:10.705Z,101082.10
2018-07-24T07:58:39.076Z,101082.25
2018-07-24T08:01:07.473Z,101077.26
2018-07-24T08:03:35.832Z,101072.58
2018-07-24T08:06:04.277Z,101077.31
2018-07-24T08:08:32.663Z,101083.09
2018-07-24T08:11:01.033Z,101076.94
2018-07-24T08:13:29.410Z,101074.58
2018-07-24T08:15:57.815Z,101073.58
2018-07-24T08:18:26.177Z,101068.56
2018-07-24T08:20:54.537Z,101070.58
2018-07-24T08:23:23.008Z,101067.98
2018-07-24T08:25:51.359Z,101068.11
2018-07-24T08:28:20.826Z,101065.86
2018-07-24T08:30:50.173Z,101060.44
2018-07-24T08:33:19.085Z,101060.63
2018-07-24T08:35:48.857Z,101056.64
2018-07-24T08:38:17.217Z,101057.69
2018-07-24T08:40:47.542Z,101054.27
2018-07-24T08:43:18.250Z,101053.98
2018-07-24T08:45:48.090Z,101046.66
2018-07-24T08:48:16.514Z,101052.31
2018-07-24T08:50:45.779Z,101049.92
2018-07-24T08:53:14.931Z,101051.90
2018-07-24T08:55:43.572Z,101043.55
2018-07-24T08:58:11.699Z,101042.88
2018-07-24T09:00:40.078Z,101043.16
2018-07-24T09:03:08.507Z,101040.47
2018-07-24T09:05:36.861Z,101030.48
2018-07-24T09:08:05.245Z,101027.97
2018-07-24T09:10:33.689Z,101031.26
2018-07-24T09:13:02.097Z,101027.92
2018-07-24T09:15:30.531Z,101024.30
2018-07-24T09:17:58.885Z,101036.06
2018-07-24T09:20:27.270Z,101037.33
2018-07-24T09:22:55.629Z,101036.33
2018-07-24T09:25:24.007Z,101033.84
2018-07-24T09:27:52.373Z,101034.06
2018-07-24T09:30:20.706Z,101031.12
2018-07-24T09:32:50.123Z,101029.90
2018-07-24T09:35:19.416Z,101018.30
2018-07-24T09:37:48.441Z,101020.72
2018-07-24T09:40:18.041Z,101016.63
2018-07-24T09:42:46.430Z,101023.44
2018-07-24T09:45:15.404Z,101013.03
2018-07-24T09:47:44.890Z,101020.66
2018-07-24T09:50:13.310Z,101012.84
2018-07-24T09:52:41.682Z,101013.73
2018-07-24T09:55:10.074Z,101016.76
2018-07-24T09:57:38.449Z,101017.87
2018-07-24T10:00:07.985Z,101007.70
2018-07-24T10:02:36.387Z,101009.75
2018-07-24T10:05:04.798Z,101007.55
2018-07-24T10:07:33.392Z,101002.59
2018-07-24T10:10:01.763Z,101004.38
2018-07-24T10:12:30.145Z,101002.33
2018-07-24T10:14:58.533Z,101006.87
2018-07-24T10:17:26.913Z,101001.05
2018-07-24T10:19:55.346Z,100995.94
2018-07-24T10:22:23.774Z,100992.75
2018-07-24T10:24:52.137Z,100995.33
2018-07-24T10:27:20.507Z,100996.36
2018-07-24T10:29:49.543Z,100991.06
2018-07-24T10:32:19.546Z,100989.02
2018-07-24T10:34:49.553Z,100992.70
2018-07-24T10:37:18.561Z,100987.88
2018-07-24T10:39:47.654Z,100979.92
2018-07-24T10:42:17.818Z,100979.56
2018-07-24T10:44:46.181Z,100981.05
2018-07-24T10:47:15.171Z,100971.44
2018-07-24T10:49:43.961Z,100981.97
2018-07-24T10:52:12.489Z,100968.09
2018-07-24T10:54:40.856Z,100976.69
2018-07-24T10:57:09.193Z,100966.75
2018-07-24T10:59:37.549Z,100963.45
2018-07-24T11:02:05.924Z,100975.36
2018-07-24T11:04:34.281Z,100956.96
2018-07-24T11:07:02.673Z,100957.06
2018-07-24T11:09:31.118Z,100953.48
2018-07-24T11:11:59.460Z,100958.32
2018-07-24T11:14:27.840Z,100961.67
2018-07-24T11:16:56.259Z,100956.02
2018-07-24T11:19:24.622Z,100950.92
2018-07-24T11:21:53.033Z,100952.69
2018-07-24T11:24:21.399Z,100950.52
2018-07-24T11:26:50.794Z,100949.91
2018-07-24T11:29:20.414Z,100950.89
2018-07-24T11:31:49.665Z,100944.77
2018-07-24T11:34:18.825Z,100944.63
2018-07-24T11:36:47.201Z,100935.78
2018-07-24T11:39:16.801Z,100941.70
2018-07-24T11:41:46.109Z,100936.86
2018-07-24T11:44:14.897Z,100941.52
2018-07-24T11:46:43.856Z,100939.13
2018-07-24T11:49:12.220Z,100930.09
2018-07-24T11:51:40.618Z,100933.48
2018-07-24T11:54:08.989Z,100933.05
2018-07-24T11:56:37.521Z,100925.05
2018-07-24T11:59:05.886Z,100929.58
2018-07-24T12:01:34.234Z,100925.69
2018-07-24T12:04:02.610Z,100920.56
2018-07-24T12:06:30.957Z,100916.98
2018-07-24T12:08:59.297Z,100917.12
2018-07-24T12:11:27.674Z,100922.06
2018-07-24T12:13:56.025Z,100918.98
2018-07-24T12:16:24.611Z,100915.61
2018-07-24T12:18:53.002Z,100917.39
2018-07-24T12:21:21.418Z,100906.98
2018-07-24T12:23:50.418Z,100908.15
2018-07-24T12:26:20.122Z,100903.50
2018-07-24T12:28:48.786Z,100895.89
2018-07-24T12:31:17.161Z,100905.20
2018-07-24T12:33:46.605Z,100902.05
2018-07-24T12:36:18.089Z,100898.62
2018-07-24T12:38:47.303Z,100903.91
2018-07-24T12:41:16.506Z,100892.83
2018-07-24T12:43:45.849Z,100896.41
2018-07-24T12:46:15.099Z,100901.13
2018-07-24T12:48:43.960Z,100905.72
2018-07-24T12:51:12.394Z,100898.70
2018-07-24T12:53:40.755Z,100891.80
2018-07-24T12:56:09.134Z,100890.72
2018-07-24T12:58:37.546Z,100885.49
2018-07-24T13:01:05.901Z,100891.83
2018-07-24T13:03:34.282Z,100885.66
2018-07-24T13:06:02.638Z,100890.64
2018-07-24T13:08:30.992Z,100887.91
2018-07-24T13:10:59.486Z,100879.12
2018-07-24T13:13:27.821Z,100886.41
2018-07-24T13:15:56.220Z,100875.12
2018-07-24T13:18:24.576Z,100870.95
2018-07-24T13:20:52.962Z,100871.78
2018-07-24T13:23:21.306Z,100877.69
2018-07-24T13:25:50.929Z,100867.45
2018-07-24T13:28:20.852Z,100868.41
2018-07-24T13:30:50.115Z,100871.37
2018-07-24T13:33:19.514Z,100871.49
2018-07-24T13:35:48.647Z,100866.25
2018-07-24T13:38:17.867Z,100872.79
2018-07-24T13:40:48.571Z,100856.37
2018-07-24T13:43:17.984Z,100858.92
2018-07-24T13:45:48.226Z,100855.34
2018-07-24T13:48:17.157Z,100858.73
2018-07-24T13:50:46.643Z,100855.05
2018-07-24T13:53:15.034Z,100849.49
2018-07-24T13:55:43.460Z,100848.64
2018-07-24T13:58:11.830Z,100844.84
2018-07-24T14:00:40.225Z,100855.67
2018-07-24T14:03:08.597Z,100856.97
2018-07-24T14:05:36.979Z,100851.71
2018-07-24T14:08:05.377Z,100848.19
2018-07-24T14:10:33.762Z,100854.13
2018-07-24T14:13:02.140Z,100854.45
2018-07-24T14:15:30.501Z,100852.54
2018-07-24T14:17:58.864Z,100855.09
2018-07-24T14:20:27.250Z,100851.83
2018-07-24T14:22:55.622Z,100841.76
2018-07-24T14:25:23.987Z,100840.72
2018-07-24T14:27:52.331Z,100845.29
2018-07-24T14:30:20.700Z,100848.61
2018-07-24T14:32:50.476Z,100843.89
2018-07-24T14:35:20.173Z,100838.41
2018-07-24T14:37:49.660Z,100833.72
2018-07-24T14:40:18.617Z,100837.37
2018-07-24T14:42:47.775Z,100840.90
2018-07-24T14:45:17.182Z,100832.80
2018-07-24T14:47:46.690Z,100833.99
2018-07-24T14:50:15.061Z,100835.41
2018-07-24T14:52:44.060Z,100826.57
2018-07-24T14:55:12.521Z,100836.66
2018-07-24T14:57:40.862Z,100834.34
2018-07-24T15:00:09.273Z,100827.45
2018-07-24T15:02:37.683Z,100825.19
2018-07-24T15:05:06.238Z,100834.17
2018-07-24T15:07:34.614Z,100827.45
2018-07-24T15:10:03.025Z,100828.28
2018-07-24T15:12:31.410Z,100820.55
2018-07-24T15:14:59.814Z,100819.58
2018-07-24T15:17:28.202Z,100809.33
2018-07-24T15:19:56.629Z,100811.52
2018-07-24T15:22:25.147Z,100815.06
2018-07-24T15:24:53.526Z,100816.75
2018-07-24T15:27:22.789Z,100810.69
2018-07-24T15:29:51.141Z,100820.84
2018-07-24T15:32:20.465Z,100814.05
2018-07-24T15:34:49.829Z,100811.58
2018-07-24T15:37:18.268Z,100807.78
2018-07-24T15:39:46.691Z,100810.47
2018-07-24T15:42:15.603Z,100802.38
2018-07-24T15:44:44.975Z,100798.58
2018-07-24T15:47:14.334Z,100798.27
2018-07-24T15:49:42.714Z,100799.66
2018-07-24T15:52:11.224Z,100801.55
2018-07-24T15:54:39.539Z,100796.58
2018-07-24T15:57:07.946Z,100790.63
2018-07-24T15:59:36.345Z,100790.22
2018-07-24T16:02:04.738Z,100787.95
2018-07-24T16:04:33.095Z,100785.65
2018-07-24T16:07:01.470Z,100781.93
2018-07-24T16:09:29.839Z,100781.72
2018-07-24T16:11:58.229Z,100783.41
2018-07-24T16:14:26.594Z,100783.23
2018-07-24T16:16:55.053Z,100778.22
2018-07-24T16:19:23.418Z,100783.44
2018-07-24T16:21:51.807Z,100786.31
2018-07-24T16:24:20.177Z,100777.67
2018-07-24T16:26:49.159Z,100770.62
2018-07-24T16:29:18.777Z,100773.27
2018-07-24T16:31:47.162Z,100779.06
2018-07-24T16:34:16.410Z,100773.43
2018-07-24T16:36:45.136Z,100773.98
2018-07-24T16:39:13.567Z,100768.00
2018-07-24T16:41:42.236Z,100767.71
2018-07-24T16:44:10.613Z,100767.45
2018-07-24T16:46:39.020Z,100768.41
2018-07-24T16:49:07.383Z,100765.59
2018-07-24T16:51:35.778Z,100762.60
2018-07-24T16:54:04.183Z,100763.36
2018-07-24T16:56:32.529Z,100757.45
2018-07-24T16:59:00.910Z,100763.43
2018-07-24T17:01:29.302Z,100755.42
2018-07-24T17:03:57.685Z,100757.50
2018-07-24T17:06:26.054Z,100748.79
2018-07-24T17:08:54.430Z,100753.45
2018-07-24T17:11:22.792Z,100749.41
2018-07-24T17:13:51.181Z,100747.05
2018-07-24T17:16:21.568Z,100750.20
2018-07-24T17:18:50.226Z,100750.78
2018-07-24T17:21:19.449Z,100754.08
2018-07-24T17:23:49.079Z,100752.67
2018-07-24T17:26:18.932Z,100749.91
2018-07-24T17:28:47.622Z,100752.08
2018-07-24T17:31:16.696Z,100746.78
2018-07-24T17:33:46.088Z,100751.25
2018-07-24T17:36:15.221Z,100750.38
2018-07-24T17:38:43.639Z,100753.73
2018-07-24T17:41:11.997Z,100755.39
2018-07-24T17:43:40.429Z,100760.89
2018-07-24T17:46:08.777Z,100753.72
2018-07-24T17:48:37.133Z,100756.87
2018-07-24T17:51:05.570Z,100760.30
2018-07-24T17:53:33.935Z,100761.45
2018-07-24T17:56:02.336Z,100761.28
2018-07-24T17:58:30.716Z,100765.03
2018-07-24T18:00:59.119Z,100774.38
2018-07-24T18:03:27.487Z,100773.19
2018-07-24T18:05:55.833Z,100779.59
2018-07-24T18:08:24.181Z,100778.39
2018-07-24T18:10:52.538Z,100783.34
2018-07-24T18:13:20.880Z,100789.09
2018-07-24T18:15:50.639Z,100792.93
2018-07-24T18:18:20.692Z,100786.62
2018-07-24T18:20:50.251Z,100794.52
2018-07-24T18:23:19.794Z,100789.15
2018-07-24T18:25:48.148Z,100791.12
2018-07-24T18:28:17.226Z,100787.67
2018-07-24T18:30:46.292Z,100791.91
2018-07-24T18:33:14.689Z,100788.67
2018-07-24T18:35:43.057Z,100791.64
2018-07-24T18:38:11.424Z,100794.16
2018-07-24T18:40:39.789Z,100797.45
2018-07-24T18:43:08.162Z,100790.33
2018-07-24T18:45:36.521Z,100792.12
2018-07-24T18:48:05.148Z,100792.63
2018-07-24T18:50:33.690Z,100795.21
2018-07-24T18:53:02.100Z,100798.19
2018-07-24T18:55:30.481Z,100792.94
2018-07-24T18:57:59.001Z,100796.63
2018-07-24T19:00:27.503Z,100801.62
2018-07-24T19:02:56.087Z,100798.94
2018-07-24T19:05:25.198Z,100802.83
2018-07-24T19:07:53.991Z,100803.55
2018-07-24T19:10:22.757Z,100803.13
2018-07-24T19:12:51.568Z,100801.96
2018-07-24T19:15:21.374Z,100802.05
2018-07-24T19:17:51.260Z,100805.22
2018-07-24T19:20:21.057Z,100802.82
2018-07-24T19:22:51.185Z,100800.61
2018-07-24T19:25:22.305Z,100808.47
2018-07-24T19:27:51.301Z,100804.05
2018-07-24T19:30:21.226Z,100804.41
2018-07-24T19:32:50.966Z,100809.70
2018-07-24T19:35:20.830Z,100806.67
2018-07-24T19:37:50.095Z,100808.23
2018-07-24T19:40:19.801Z,100810.09
2018-07-24T19:42:49.638Z,100813.73
2018-07-24T19:45:18.345Z,100811.23
2018-07-24T19:47:48.255Z,100815.97
2018-07-24T19:50:19.581Z,100815.84
2018-07-24T19:52:50.697Z,100815.49
2018-07-24T19:55:20.203Z,100818.62
2018-07-24T19:57:50.288Z,100817.11
2018-07-24T20:00:19.687Z,100815.77
2018-07-24T20:02:49.389Z,100812.64
2018-07-24T20:05:18.208Z,100809.84
2018-07-24T20:07:48.725Z,100821.05
2018-07-24T20:10:18.599Z,100819.52
2018-07-24T20:12:48.721Z,100818.83
2018-07-24T20:15:19.633Z,100818.94
2018-07-24T20:17:50.022Z,100817.84
2018-07-24T20:20:19.783Z,100816.94
2018-07-24T20:22:49.694Z,100814.84
2018-07-24T20:25:19.831Z,100821.14
2018-07-24T20:27:49.563Z,100817.64
2018-07-24T20:30:18.345Z,100823.67
2018-07-24T20:32:48.873Z,100821.57
2018-07-24T20:35:20.742Z,100824.41
2018-07-24T20:37:49.949Z,100830.44
2018-07-24T20:40:19.473Z,100830.86
2018-07-24T20:42:49.506Z,100823.29
2018-07-24T20:45:18.943Z,100828.62
2018-07-24T20:47:48.363Z,100832.11
2018-07-24T20:50:18.548Z,100828.61
2018-07-24T20:52:47.114Z,100838.41
2018-07-24T20:55:16.613Z,100836.72
2018-07-24T20:57:45.831Z,100836.63
2018-07-24T21:00:14.939Z,100832.52
2018-07-24T21:02:43.401Z,100832.92
2018-07-24T21:05:11.926Z,100829.98
2018-07-24T21:07:47.523Z,100838.47
2018-07-24T21:10:18.681Z,100836.30
2018-07-24T21:12:49.408Z,100839.35
2018-07-24T21:15:19.410Z,100838.42
2018-07-24T21:17:48.122Z,100845.62
2018-07-24T21:20:17.622Z,100840.51
2018-07-24T21:22:48.607Z,100840.84
2018-07-24T21:25:17.749Z,100847.66
2018-07-24T21:27:48.428Z,100837.05
2018-07-24T21:30:18.184Z,100840.55
2018-07-24T21:32:46.573Z,100839.31
2018-07-24T21:35:15.481Z,100840.70
2018-07-24T21:37:44.269Z,100841.09
2018-07-24T21:40:12.952Z,100840.80
2018-07-24T21:42:41.325Z,100835.52
2018-07-24T21:45:09.737Z,100849.32
2018-07-24T21:47:38.089Z,100834.19
2018-07-24T21:50:06.497Z,100841.57
2018-07-24T21:52:34.961Z,100840.89
2018-07-24T21:55:03.355Z,100843.86
2018-07-24T21:57:31.466Z,100843.10
2018-07-24T21:59:59.805Z,100843.89
2018-07-24T22:02:28.181Z,100840.28
2018-07-24T22:04:56.590Z,100832.80
2018-07-24T22:07:24.968Z,100843.98
2018-07-24T22:09:53.315Z,100842.03
2018-07-24T22:12:21.686Z,100843.21
2018-07-24T22:14:51.191Z,100849.41
2018-07-24T22:17:20.170Z,100853.43
2018-07-24T22:19:49.614Z,100852.78
2018-07-24T22:22:19.597Z,100852.13
2018-07-24T22:24:48.689Z,100849.47
2018-07-24T22:27:17.906Z,100854.79
2018-07-24T22:29:47.238Z,100846.84
2018-07-24T22:32:16.477Z,100850.98
2018-07-24T22:34:44.833Z,100850.89
2018-07-24T22:37:13.195Z,100853.73
2018-07-24T22:39:41.533Z,100861.09
2018-07-24T22:42:09.893Z,100852.00
2018-07-24T22:44:38.255Z,100858.64
2018-07-24T22:47:06.607Z,100852.14
2018-07-24T22:49:34.954Z,100851.98
2018-07-24T22:52:03.289Z,100860.33
2018-07-24T22:54:31.642Z,100854.30
2018-07-24T22:57:00.010Z,100861.64
2018-07-24T22:59:28.413Z,100863.30
2018-07-24T23:01:56.819Z,100854.00
2018-07-24T23:04:25.178Z,100856.63
2018-07-24T23:06:53.613Z,100859.47
2018-07-24T23:09:21.953Z,100851.34
2018-07-24T23:11:50.301Z,100855.32
2018-07-24T23:14:19.293Z,100854.16
2018-07-24T23:16:48.878Z,100856.52
2018-07-24T23:19:17.258Z,100854.21
2018-07-24T23:21:46.678Z,100862.05
2018-07-24T23:24:15.409Z,100858.08
2018-07-24T23:26:43.831Z,100861.06
2018-07-24T23:29:12.184Z,100860.06
2018-07-24T23:31:40.548Z,100856.11
2018-07-24T23:34:08.889Z,100855.94
2018-07-24T23:36:37.234Z,100851.10
2018-07-24T23:39:07.924Z,100854.44
2018-07-24T23:41:36.297Z,100853.63
2018-07-24T23:44:04.649Z,100863.95
2018-07-24T23:46:32.998Z,100854.16
2018-07-24T23:49:01.398Z,100855.99
2018-07-24T23:51:30.098Z,100850.84
2018-07-24T23:53:58.458Z,100859.14
2018-07-24T23:56:26.819Z,100850.50
2018-07-24T23:58:55.200Z,100850.01
